Headquarters, Valles Caldera, New Mexico Weather observations

Data are for 10 minute period ending at time listed.
 Day   Time   Solar   Ave.   Ave.  Ave.  Vector  Max.   Baro.   Total    
  of    of     Rad.   Air    Rel.  Wind   Wind   Wind  Press.  Precip.   
Year   Day            Temp.  Hum.  Speed  Dir.   Gust                    
2016   (MST)  Kw/m2    F      %     mph   deg.    mph    mb.     in.     
-------------------------------------------------------------------------
 145    3:20   0.00   33.6    58    2.3   258     4.8   738.3    0.00 
 145    3:30   0.00   33.8    56    4.2   235     7.2   738.2    0.00 
 145    3:40   0.00   35.8    50    3.8   250     7.2   738.2    0.00 
 145    3:50   0.00   35.2    54    2.8    69     4.8   738.3    0.00 
 145    4:00   0.00   32.6    60    3.6   234     8.4   738.3    0.00 
 145    4:10   0.00   32.9    59    2.0    36     4.8   738.3    0.00 
 145    4:20   0.00   32.1    60    0.7   284     2.4   738.3    0.00 
 145    4:30   0.00   32.2    60    1.1   273     5.4   738.4    0.00 
 145    4:40   0.00   32.5    58    1.4     5     3.0   738.4    0.00 
 145    4:50   0.00   33.2    57    2.1    12     3.6   738.5    0.00 
 145    5:00   0.00   33.0    57    2.9   357     4.8   738.6    0.00 
 145    5:10   0.01   33.2    56    2.1   295     4.2   738.7    0.00 
 145    5:20   0.03   33.6    58    3.7   227     6.0   738.8    0.00 
 145    5:30   0.05   36.0    56    2.0   238     4.2   738.8    0.00 
 145    5:40   0.08   38.3    54    1.0     5     2.4   738.9    0.00 
 145    5:50   0.11   39.9    50    1.7    60     4.8   738.9    0.00 
 145    6:00   0.14   40.6    52    1.9    76     4.2   739.0    0.00 
 145    6:10   0.16   41.0    50    1.5   143     3.6   738.9    0.00 
 145    6:20   0.19   41.9    45    2.2    88     3.6   738.9    0.00 
 145    6:30   0.22   44.4    41    1.6   107     3.6   739.0    0.00 
 145    6:40   0.25   44.9    41    2.0   158     3.6   739.0    0.00 
 145    6:50   0.28   47.7    36    2.3   203     4.8   739.1    0.00 
 145    7:00   0.31   51.1    32    2.6   161     5.4   739.2    0.00 
 145    7:10   0.34   51.1    40    4.3    96     6.0   739.2    0.00 
 145    7:20   0.37   49.6    45    4.1    67     5.4   739.3    0.00 
 145    7:30   0.40   51.3    37    5.3    78     7.8   739.3    0.00 
 145    7:40   0.43   53.3    32    6.1   120    15.5   739.3    0.00 
 145    7:50   0.46   56.2    26    7.7   242    14.9   739.4    0.00 
 145    8:00   0.49   57.7    26    6.7   210    13.1   739.5    0.00 
 145    8:10   0.52   56.8    27    5.7   157    13.7   739.5    0.00 
 145    8:20   0.55   56.9    28    6.9   181    16.1   739.5    0.00 
 145    8:30   0.58   57.9    26    8.6   209    14.3   739.5    0.00 
 145    8:40   0.60   58.6    25    8.7   210    15.5   739.5    0.00 
 145    8:50   0.62   58.8    24    9.2   220    16.1   739.6    0.00 
 145    9:00   0.64   59.0    24    7.3   223    14.9   739.6    0.00 
 145    9:10   0.66   59.9    25    8.3   211    20.3   739.5    0.00 
 145    9:20   0.69   59.9    23    9.2   205    16.1   739.5    0.00 
 145    9:30   0.71   59.2    23    9.8   208    18.5   739.5    0.00 
 145    9:40   0.73   61.0    22    9.2   241    15.5   739.5    0.00 
 145    9:50   0.76   60.8    22    9.8   205    20.9   739.5    0.00 
 145   10:00   0.78   60.1    21   11.7   197    23.3   739.5    0.00 
 145   10:10   0.79   60.1    22    8.9   227    19.1   739.5    0.00 
 145   10:20   0.81   60.3    21   12.0   195    20.3   739.5    0.00 
 145   10:30   0.82   60.1    21   10.2   236    17.9   739.5    0.00 
 145   10:40   0.83   60.0    22    8.5   226    19.1   739.5    0.00 
 145   10:50   0.84   61.2    20   10.6   236    18.5   739.5    0.00 
 145   11:00   0.85   61.3    21    8.2   237    16.7   739.5    0.00 
 145   11:10   0.87   61.2    22   11.5   205    20.3   739.5    0.00 
 145   11:20   0.87   60.1    23    8.9   178    17.3   739.5    0.00 
 145   11:30   0.88   60.0    23   11.3   197    23.3   739.5    0.00 
 145   11:40   0.88   60.9    22   11.2   196    16.7   739.5    0.00 
 145   11:50   0.89   61.1    22    9.5   203    19.7   739.5    0.00 
 145   12:00   0.89   61.5    21    8.3   244    15.5   739.5    0.00 
 145   12:10   0.89   61.9    21    7.4   253    17.3   739.4    0.00 
 145   12:20   0.89   62.5    20   11.1   213    19.1   739.4    0.00 
 145   12:30   0.89   61.7    21   13.2   199    22.7   739.3    0.00 
 145   12:40   0.88   61.7    20   10.3   196    20.9   739.2    0.00 
 145   12:50   0.88   62.3    20   10.4   210    20.9   739.2    0.00 
 145   13:00   0.88   62.8    20   11.5   215    21.5   739.1    0.00 
 145   13:10   0.87   63.8    20    9.3   202    17.3   739.1    0.00 
 145   13:20   0.71   64.0    18   11.3   238    19.1   739.2    0.00 
 145   13:30   0.85   62.4    20   11.2   197    23.9   739.2    0.00 
 145   13:40   0.80   62.4    21    9.4   197    19.1   739.1    0.00 
 145   13:50   0.85   63.5    20   13.2   205    23.3   739.0    0.00 
 145   14:00   0.81   63.3    19   13.5   204    28.6   739.0    0.00 
 145   14:10   0.44   62.2    18   14.2   207    25.0   738.9    0.00 
 145   14:20   0.69   62.2    18   11.6   213    22.7   738.8    0.00 
 145   14:30   0.81   64.8    18   11.3   218    20.3   738.6    0.00 
 145   14:40   0.69   64.1    18   14.4   209    28.6   738.6    0.00 
 145   14:50   0.64   64.4    18   13.0   217    23.9   738.6    0.00 
 145   15:00   0.50   62.4    18   13.2   198    23.3   738.6    0.00 
 145   15:10   0.50   63.0    18   13.5   208    26.8   738.5    0.00 
 145   15:20   0.16   60.9    18    9.6   224    18.5   738.5    0.00 
 145   15:30   0.57   62.6    18   10.3   201    25.6   738.3    0.00 
 145   15:40   0.23   61.8    16   14.5   211    26.8   738.5    0.00 
 145   15:50   0.22   61.6    16    7.4   216    18.5   738.4    0.00 
 145   16:00   0.18   61.4    16   11.1   217    23.3   738.5    0.00 
 145   16:10   0.22   61.1    16   10.8   226    17.9   738.4    0.00 
 145   16:20   0.22   62.0    15    8.9   219    17.9   738.3    0.00 
 145   16:30   0.18   61.9    15   11.2   239    20.3   738.3    0.00 
 145   16:40   0.16   61.5    15    8.5   224    16.1   738.3    0.00 
 145   16:50   0.15   61.4    15   10.3   218    17.3   738.2    0.00 
 145   17:00   0.24   61.6    15    6.3   246    16.7   738.2    0.00 
 145   17:10   0.29   63.6    14    9.6   216    17.9   738.2    0.00 
 145   17:20   0.23   62.7    15   10.0   216    16.7   738.2    0.00 
 145   17:30   0.09   61.2    15    8.7   221    16.1   738.2    0.00 
 145   17:40   0.09   60.2    16   12.7   216    23.9   738.3    0.00 
 145   17:50   0.06   59.6    16    9.7   254    20.9   738.5    0.00 
 145   18:00   0.06   58.9    17    9.8   207    20.3   738.4    0.00 
 145   18:10   0.05   58.9    17    6.0   234    14.3   738.3    0.00 
 145   18:20   0.08   59.5    16    9.5   217    19.1   738.3    0.00 
 145   18:30   0.06   59.8    15    5.5   234    12.5   738.3    0.00 
 145   18:40   0.05   59.5    16    5.9   235    17.9   738.4    0.00 
 145   18:50   0.03   58.7    16    5.8   233    12.5   738.6    0.00 
 145   19:00   0.01   57.5    16    4.7   259     8.4   738.6    0.00 
 145   19:10   0.01   56.9    16    7.9   245    15.5   738.7    0.00 
 145   19:20   0.00   56.2    17    6.9   272    17.9   738.8    0.00 
 145   19:30   0.00   55.9    16    7.3   265    16.7   739.0    0.00 
 145   19:40   0.00   55.1    16    6.3   267    12.5   739.1    0.00 
 145   19:50   0.00   54.7    15    7.5   270    13.1   739.3    0.00 
 145   20:00   0.00   54.4    15    5.9   277    11.3   739.4    0.00 
 145   20:10   0.00   54.2    14    6.8   258    16.1   739.5    0.00 
 145   20:20   0.00   53.5    14    4.9   277     7.8   739.5    0.00 
 145   20:30   0.00   52.6    15    6.7   263    16.1   739.6    0.00 
 145   20:40   0.00   52.1    15    4.6   259    14.3   739.7    0.00 
 145   20:50   0.00   51.3    16    3.7   277     6.0   739.7    0.00 
 145   21:00   0.00   48.0    22    4.7   260     9.0   739.8    0.00 
 145   21:10   0.00   45.8    25    5.0   278     7.8   739.9    0.00 
 145   21:20   0.00   43.7    28    5.4   278     6.6   739.9    0.00 
 145   21:30   0.00   43.0    27    5.2   270     8.4   739.9    0.00 
 145   21:40   0.00   44.0    26    5.0   268     8.4   739.9    0.00 
 145   21:50   0.00   43.5    27    5.1   262     7.2   740.0    0.00 
 145   22:00   0.00   44.5    24    5.3   265     9.6   740.1    0.00 
 145   22:10   0.00   46.1    22    4.8   257     7.2   740.1    0.00 
 145   22:20   0.00   46.6    20    5.5   254     9.6   740.1    0.00 
 145   22:30   0.00   47.4    19    5.7   250     9.0   740.1    0.00 
 145   22:40   0.00   47.8    18    6.4   262    12.5   740.2    0.00 
 145   22:50   0.00   48.2    18    6.1   256    10.8   740.3    0.00 
 145   23:00   0.00   48.2    17    7.2   262    13.7   740.3    0.00 
 145   23:10   0.00   47.8    17    5.8   258     9.0   740.3    0.00 
 145   23:20   0.00   47.3    17    5.2   256     9.6   740.4    0.00 
 145   23:30   0.00   46.6    17    5.6   258    10.8   740.4    0.00 
 145   23:40   0.00   46.7    17    6.0   250     9.6   740.4    0.00 
 145   23:50   0.00   46.7    18    6.5   249    11.9   740.4    0.00 
 146    0:00   0.00   46.8    18    7.6   253    15.5   740.3    0.00 
 146    0:10   0.00   47.8    18    9.5   257    18.5   740.2    0.00 
 146    0:20   0.00   48.3    17    8.5   255    17.9   740.2    0.00 
 146    0:30   0.00   48.0    18    8.4   255    14.9   740.2    0.00 
 146    0:40   0.00   47.8    18    7.5   260    12.5   740.4    0.00 
 146    0:50   0.00   46.9    18    6.6   242    11.3   740.4    0.00 
 146    1:00   0.00   46.2    19    6.8   250    10.8   740.4    0.00 
 146    1:10   0.00   45.6    20    6.2   260    11.3   740.5    0.00 
 146    1:20   0.00   45.8    20    7.0   252    10.8   740.4    0.00 
 146    1:30   0.00   45.5    20    6.5   252    10.2   740.3    0.00 
 146    1:40   0.00   45.1    20    6.3   259    10.8   740.2    0.00 
 146    1:50   0.00   44.6    20    5.9   249     8.4   740.2    0.00 
 146    2:00   0.00   44.5    21    5.5   259     9.0   740.3    0.00 
 146    2:10   0.00   43.5    21    5.3   256     7.2   740.2    0.00 
 146    2:20   0.00   42.6    23    6.0   251     9.6   740.2    0.00 
 146    2:30   0.00   42.8    23    5.5   249     8.4   740.2    0.00 
 146    2:40   0.00   42.3    24    5.8   249     9.6   740.2    0.00 
 146    2:50   0.00   41.2    24    6.0   246     9.0   740.1    0.00 
 146    3:00   0.00   41.8    21    7.5   246    15.5   740.1    0.00 
 146    3:10   0.00   42.9    19    6.7   244    10.8   740.2    0.00 

Return to Headquarters, Valles Caldera graphs page.


Western Regional Climate Center,wrcc@dri.edu